createdAt,value
2023-02-21T00:00:12.238Z,98959.77
2023-02-21T00:03:19.328Z,98967.67
2023-02-21T00:06:06.042Z,98968.70
2023-02-21T00:08:52.652Z,98963.34
2023-02-21T00:11:39.368Z,98961.79
2023-02-21T00:14:25.858Z,98954.73
2023-02-21T00:17:12.675Z,98960.05
2023-02-21T00:19:59.828Z,98960.56
2023-02-21T00:22:46.890Z,98957.14
2023-02-21T00:25:34.569Z,98960.59
2023-02-21T00:28:22.290Z,98964.21
2023-02-21T00:31:09.366Z,98953.69
2023-02-21T00:33:56.099Z,98964.88
2023-02-21T00:36:42.715Z,98957.14
2023-02-21T00:39:30.318Z,98941.15
2023-02-21T00:42:16.892Z,98928.41
2023-02-21T00:45:03.837Z,98938.41
2023-02-21T00:47:50.767Z,98938.41
2023-02-21T00:50:37.256Z,98950.08
2023-02-21T00:53:24.239Z,98950.08
2023-02-21T00:56:10.975Z,98946.61
2023-02-21T00:58:57.419Z,98947.14
2023-02-21T01:01:44.041Z,98953.15
2023-02-21T01:04:31.074Z,98950.40
2023-02-21T01:07:17.964Z,98946.10
2023-02-21T01:10:04.865Z,98935.45
2023-02-21T01:12:52.641Z,98944.63
2023-02-21T01:15:39.565Z,98946.70
2023-02-21T01:18:26.267Z,98944.48
2023-02-21T01:21:13.307Z,98946.69
2023-02-21T01:24:00.400Z,98938.77
2023-02-21T01:26:47.902Z,98942.67
2023-02-21T01:29:34.894Z,98938.71
2023-02-21T01:32:21.610Z,98931.14
2023-02-21T01:35:08.305Z,98941.65
2023-02-21T01:37:54.898Z,98946.46
2023-02-21T01:40:41.391Z,98943.89
2023-02-21T01:43:37.032Z,98950.64
2023-02-21T01:46:24.525Z,98935.86
2023-02-21T01:49:13.368Z,98932.92
2023-02-21T01:52:01.581Z,98930.67
2023-02-21T01:54:56.695Z,98928.09
2023-02-21T01:57:44.019Z,98926.36
2023-02-21T02:00:32.654Z,98921.19
2023-02-21T02:03:22.351Z,98919.09
2023-02-21T02:06:13.261Z,98926.30
2023-02-21T02:09:01.189Z,98921.49
2023-02-21T02:11:54.025Z,98928.70
2023-02-21T02:14:40.515Z,98929.20
2023-02-21T02:17:18.210Z,98919.52
2023-02-21T02:20:04.387Z,98929.64
2023-02-21T02:22:46.604Z,98930.81
2023-02-21T02:25:14.672Z,98943.06
2023-02-21T02:28:08.347Z,98947.04
2023-02-21T02:30:58.689Z,98939.64
2023-02-21T02:37:05.514Z,98931.02
2023-02-21T02:40:01.725Z,98932.42
2023-02-21T02:42:48.853Z,98938.11
2023-02-21T02:45:37.569Z,98942.59
2023-02-21T02:48:22.521Z,98941.86
2023-02-21T02:50:52.389Z,98940.86
2023-02-21T02:53:27.064Z,98940.88
2023-02-21T02:56:01.260Z,98939.52
2023-02-21T02:58:55.674Z,98947.20
2023-02-21T03:01:45.416Z,98942.80
2023-02-21T03:04:45.124Z,98926.13
2023-02-21T03:07:36.629Z,98949.46
2023-02-21T03:10:21.768Z,98940.42
2023-02-21T03:13:02.470Z,98941.51
2023-02-21T03:15:55.826Z,98947.05
2023-02-21T03:19:13.249Z,98951.57
2023-02-21T03:21:46.903Z,98951.59
2023-02-21T03:24:18.170Z,98949.88
2023-02-21T03:26:49.712Z,98955.44
2023-02-21T03:29:39.725Z,98958.89
2023-02-21T03:32:35.436Z,98953.23
2023-02-21T03:35:07.903Z,98946.02
2023-02-21T03:37:40.222Z,98951.55
2023-02-21T03:40:13.320Z,98944.36
2023-02-21T03:42:41.571Z,98946.30
2023-02-21T03:45:10.568Z,98948.05
2023-02-21T03:47:39.039Z,98938.95
2023-02-21T03:50:08.004Z,98940.70
2023-02-21T03:52:37.092Z,98942.08
2023-02-21T03:55:06.900Z,98952.77
2023-02-21T03:57:35.226Z,98952.42
2023-02-21T04:04:50.303Z,98936.13
2023-02-21T04:07:21.264Z,98939.06
2023-02-21T04:09:50.512Z,98950.95
2023-02-21T04:12:26.664Z,98948.90
2023-02-21T04:14:56.649Z,98946.00
2023-02-21T04:17:25.994Z,98949.45
2023-02-21T04:19:55.665Z,98949.79
2023-02-21T04:22:24.249Z,98953.38
2023-02-21T04:24:52.435Z,98960.61
2023-02-21T04:27:21.979Z,98949.13
2023-02-21T04:29:55.475Z,98952.75
2023-02-21T04:34:39.386Z,98959.67
2023-02-21T04:37:07.382Z,98950.09
2023-02-21T04:39:35.255Z,98959.23
2023-02-21T04:42:03.826Z,98963.20
2023-02-21T04:44:32.528Z,98957.04
2023-02-21T04:47:00.424Z,98949.84
2023-02-21T04:49:28.654Z,98953.80
2023-02-21T04:51:56.554Z,98956.92
2023-02-21T04:54:24.609Z,98958.64
2023-02-21T04:56:52.685Z,98971.35
2023-02-21T04:59:20.496Z,98973.95
2023-02-21T05:01:48.415Z,98976.36
2023-02-21T05:04:16.388Z,98985.47
2023-02-21T05:06:44.419Z,98987.88
2023-02-21T05:09:12.602Z,98993.20
2023-02-21T05:11:41.500Z,98992.85
2023-02-21T05:14:09.809Z,98988.39
2023-02-21T05:16:38.434Z,98992.69
2023-02-21T05:19:06.256Z,98986.00
2023-02-21T05:21:38.777Z,98982.73
2023-02-21T05:24:07.834Z,98981.20
2023-02-21T05:26:37.878Z,98986.69
2023-02-21T05:29:05.869Z,98977.42
2023-02-21T05:31:33.792Z,98975.71
2023-02-21T05:34:04.358Z,98979.31
2023-02-21T05:36:32.522Z,98986.89
2023-02-21T05:39:00.405Z,98991.50
2023-02-21T05:41:28.402Z,98992.70
2023-02-21T05:43:56.674Z,99002.32
2023-02-21T05:46:28.917Z,99004.04
2023-02-21T05:48:58.719Z,99011.59
2023-02-21T05:51:27.504Z,99020.17
2023-02-21T05:53:55.353Z,99015.38
2023-02-21T05:56:23.267Z,99020.35
2023-02-21T05:58:51.101Z,99008.33
2023-02-21T06:01:18.978Z,99015.88
2023-02-21T06:03:46.877Z,99011.40
2023-02-21T06:06:16.336Z,99017.58
2023-02-21T06:08:49.603Z,99004.33
2023-02-21T06:11:28.093Z,99013.92
2023-02-21T06:13:58.357Z,99009.80
2023-02-21T06:16:26.782Z,99013.21
2023-02-21T06:18:56.871Z,99010.96
2023-02-21T06:21:24.822Z,99013.34
2023-02-21T06:23:52.821Z,99017.63
2023-02-21T06:26:21.330Z,99023.46
2023-02-21T06:28:50.235Z,99013.13
2023-02-21T06:31:20.044Z,99001.25
2023-02-21T06:33:49.352Z,99009.48
2023-02-21T06:36:21.106Z,99016.84
2023-02-21T06:38:51.467Z,99026.80
2023-02-21T06:41:21.276Z,99033.67
2023-02-21T06:43:49.996Z,99031.95
2023-02-21T06:46:19.275Z,99039.34
2023-02-21T06:48:47.767Z,99040.88
2023-02-21T06:51:16.579Z,99042.09
2023-02-21T06:53:45.942Z,99047.40
2023-02-21T06:56:13.770Z,99040.83
2023-02-21T06:58:41.810Z,99024.48
2023-02-21T07:01:09.658Z,99031.82
2023-02-21T07:03:43.229Z,99030.59
2023-02-21T07:06:11.552Z,99043.45
2023-02-21T07:08:39.590Z,99048.23
2023-02-21T07:11:08.212Z,99046.83
2023-02-21T07:13:36.481Z,99062.47
2023-02-21T07:16:05.679Z,99065.91
2023-02-21T07:18:34.048Z,99064.70
2023-02-21T07:21:01.902Z,99069.20
2023-02-21T07:23:29.814Z,99070.05
2023-02-21T07:25:57.712Z,99075.54
2023-02-21T07:28:25.590Z,99090.68
2023-02-21T07:30:53.539Z,99085.32
2023-02-21T07:33:21.454Z,99103.75
2023-02-21T07:35:49.738Z,99116.67
2023-02-21T07:38:28.370Z,99111.32
2023-02-21T07:41:02.216Z,99113.36
2023-02-21T07:43:31.117Z,99129.05
2023-02-21T07:45:59.219Z,99133.70
2023-02-21T07:48:27.174Z,99140.41
2023-02-21T07:50:55.387Z,99145.59
2023-02-21T07:53:23.348Z,99135.79
2023-02-21T07:55:51.424Z,99147.16
2023-02-21T07:58:21.360Z,99149.91
2023-02-21T08:00:49.595Z,99165.94
2023-02-21T08:03:18.168Z,99172.66
2023-02-21T08:05:46.914Z,99167.82
2023-02-21T08:08:17.213Z,99168.16
2023-02-21T08:10:45.174Z,99172.96
2023-02-21T08:13:13.684Z,99181.55
2023-02-21T08:15:41.584Z,99156.23
2023-02-21T08:18:19.353Z,99178.94
2023-02-21T08:20:47.782Z,99191.34
2023-02-21T08:23:15.749Z,99193.55
2023-02-21T08:25:44.122Z,99194.39
2023-02-21T08:28:13.071Z,99190.08
2023-02-21T08:30:41.711Z,99207.64
2023-02-21T08:33:10.055Z,99195.23
2023-02-21T08:35:38.066Z,99205.05
2023-02-21T08:38:06.748Z,99216.95
2023-02-21T08:40:34.745Z,99220.56
2023-02-21T08:43:02.764Z,99233.83
2023-02-21T08:45:30.788Z,99232.28
2023-02-21T08:47:59.356Z,99241.42
2023-02-21T08:50:28.544Z,99241.40
2023-02-21T08:52:56.934Z,99247.61
2023-02-21T08:55:25.565Z,99253.81
2023-02-21T08:57:54.103Z,99241.92
2023-02-21T09:00:24.652Z,99244.84
2023-02-21T09:02:52.696Z,99249.99
2023-02-21T09:05:27.321Z,99253.91
2023-02-21T09:08:01.705Z,99264.36
2023-02-21T09:10:35.354Z,99268.60
2023-02-21T09:13:04.619Z,99269.98
2023-02-21T09:15:32.698Z,99270.28
2023-02-21T09:18:01.010Z,99272.66
2023-02-21T09:20:30.001Z,99276.13
2023-02-21T09:22:58.042Z,99285.00
2023-02-21T09:25:25.996Z,99285.32
2023-02-21T09:27:54.895Z,99280.13
2023-02-21T09:30:26.665Z,99273.90
2023-02-21T09:32:56.159Z,99272.64
2023-02-21T09:35:24.064Z,99280.14
2023-02-21T09:37:52.080Z,99276.98
2023-02-21T09:40:25.917Z,99285.27
2023-02-21T09:42:58.378Z,99287.36
2023-02-21T09:45:31.116Z,99281.72
2023-02-21T09:48:04.754Z,99287.79
2023-02-21T09:50:40.159Z,99299.41
2023-02-21T09:53:09.035Z,99296.73
2023-02-21T09:55:40.650Z,99304.74
2023-02-21T09:58:14.698Z,99293.23
2023-02-21T10:00:46.483Z,99296.61
2023-02-21T10:03:36.330Z,99300.11
2023-02-21T10:06:27.086Z,99315.61
2023-02-21T10:09:05.745Z,99317.64
2023-02-21T10:11:51.974Z,99327.65
2023-02-21T10:14:37.972Z,99337.35
2023-02-21T10:17:13.233Z,99346.75
2023-02-21T10:19:45.313Z,99341.10
2023-02-21T10:22:27.333Z,99342.55
2023-02-21T10:24:55.409Z,99350.06
2023-02-21T10:27:27.202Z,99358.52
2023-02-21T10:30:11.628Z,99343.86
2023-02-21T10:32:39.571Z,99356.41
2023-02-21T10:35:07.897Z,99365.56
2023-02-21T10:37:53.956Z,99353.52
2023-02-21T10:40:24.543Z,99361.45
2023-02-21T10:43:15.044Z,99368.47
2023-02-21T10:45:51.073Z,99360.59
2023-02-21T10:48:21.609Z,99356.91
2023-02-21T10:51:04.507Z,99347.36
2023-02-21T10:53:53.024Z,99352.36
2023-02-21T10:56:24.393Z,99361.86
2023-02-21T10:59:06.246Z,99371.20
2023-02-21T11:04:38.613Z,99380.02
2023-02-21T11:07:12.444Z,99375.13
2023-02-21T11:09:44.913Z,99369.98
2023-02-21T11:12:16.116Z,99380.36
2023-02-21T11:15:04.364Z,99386.05
2023-02-21T11:17:33.260Z,99380.13
2023-02-21T11:20:01.085Z,99386.33
2023-02-21T11:22:35.498Z,99391.95
2023-02-21T11:25:19.847Z,99388.73
2023-02-21T11:28:13.701Z,99390.47
2023-02-21T11:30:47.546Z,99389.82
2023-02-21T11:33:21.233Z,99396.44
2023-02-21T11:35:51.587Z,99401.16
2023-02-21T11:38:36.371Z,99408.44
2023-02-21T11:41:17.496Z,99405.70
2023-02-21T11:43:48.233Z,99407.48
2023-02-21T11:46:32.010Z,99405.95
2023-02-21T11:49:18.822Z,99410.23
2023-02-21T11:51:53.851Z,99410.15
2023-02-21T11:54:27.022Z,99410.36
2023-02-21T11:57:04.525Z,99413.06
2023-02-21T12:00:00.193Z,99419.14
2023-02-21T12:02:29.621Z,99422.44
2023-02-21T12:05:09.766Z,99420.71
2023-02-21T12:07:54.380Z,99422.00
2023-02-21T12:10:29.384Z,99430.09
2023-02-21T12:13:15.692Z,99425.70
2023-02-21T12:16:02.105Z,99431.57
2023-02-21T12:19:03.996Z,99427.00
2023-02-21T12:21:53.890Z,99421.80
2023-02-21T12:24:37.029Z,99430.89
2023-02-21T12:27:33.678Z,99432.70
2023-02-21T12:30:31.051Z,99439.70
2023-02-21T12:33:11.002Z,99440.38
2023-02-21T12:36:02.548Z,99444.55
2023-02-21T12:39:00.463Z,99444.41
2023-02-21T12:41:41.491Z,99445.13
2023-02-21T12:44:37.950Z,99445.94
2023-02-21T12:47:14.987Z,99446.69
2023-02-21T12:50:00.920Z,99444.84
2023-02-21T12:52:40.957Z,99443.33
2023-02-21T12:55:26.172Z,99446.75
2023-02-21T12:57:59.704Z,99452.07
2023-02-21T13:00:50.094Z,99463.36
2023-02-21T13:03:53.129Z,99463.80
2023-02-21T13:06:32.297Z,99459.91
2023-02-21T13:09:06.578Z,99461.73
2023-02-21T13:11:49.342Z,99468.83
2023-02-21T13:14:23.460Z,99475.23
2023-02-21T13:16:53.574Z,99466.96
2023-02-21T13:19:22.908Z,99477.83
2023-02-21T13:21:53.795Z,99477.96
2023-02-21T13:24:33.025Z,99483.48
2023-02-21T13:27:19.238Z,99492.27
2023-02-21T13:29:47.588Z,99491.05
2023-02-21T13:32:20.020Z,99492.36
2023-02-21T13:34:59.510Z,99494.35
2023-02-21T13:37:30.974Z,99489.45
2023-02-21T13:40:23.683Z,99498.10
2023-02-21T13:43:13.073Z,99492.79
2023-02-21T13:45:41.491Z,99505.77
2023-02-21T13:48:18.531Z,99509.81
2023-02-21T13:50:46.453Z,99523.83
2023-02-21T13:53:21.377Z,99521.60
2023-02-21T13:56:07.603Z,99526.27
2023-02-21T13:58:37.303Z,99532.66
2023-02-21T14:01:16.542Z,99534.39
2023-02-21T14:03:45.388Z,99541.27
2023-02-21T14:06:22.696Z,99542.83
2023-02-21T14:08:58.575Z,99543.01
2023-02-21T14:11:32.147Z,99548.31
2023-02-21T14:14:30.985Z,99547.08
2023-02-21T14:17:04.794Z,99557.56
2023-02-21T14:19:37.451Z,99556.33
2023-02-21T14:22:26.332Z,99552.71
2023-02-21T14:25:16.568Z,99547.52
2023-02-21T14:27:45.880Z,99557.48
2023-02-21T14:30:32.972Z,99550.09
2023-02-21T14:33:20.526Z,99553.70
2023-02-21T14:35:58.371Z,99554.23
2023-02-21T14:38:30.735Z,99558.88
2023-02-21T14:41:30.651Z,99558.54
2023-02-21T14:44:28.133Z,99557.69
2023-02-21T14:47:17.097Z,99561.14
2023-02-21T14:50:13.241Z,99563.55
2023-02-21T14:52:44.268Z,99568.55
2023-02-21T14:55:29.479Z,99569.23
2023-02-21T14:58:34.919Z,99577.15
2023-02-21T15:01:26.420Z,99573.55
2023-02-21T15:04:08.455Z,99569.58
2023-02-21T15:06:42.172Z,99574.91
2023-02-21T15:09:19.741Z,99579.05
2023-02-21T15:11:48.953Z,99582.14
2023-02-21T15:14:23.568Z,99584.38
2023-02-21T15:16:56.665Z,99583.70
2023-02-21T15:19:28.871Z,99594.19
2023-02-21T15:22:26.996Z,99591.44
2023-02-21T15:25:11.099Z,99598.14
2023-02-21T15:28:00.114Z,99609.66
2023-02-21T15:30:46.426Z,99608.11
2023-02-21T15:33:26.428Z,99616.70
2023-02-21T15:35:54.568Z,99617.21
2023-02-21T15:38:42.523Z,99617.55
2023-02-21T15:41:36.175Z,99617.86
2023-02-21T15:44:25.923Z,99626.29
2023-02-21T15:46:59.431Z,99630.23
2023-02-21T15:49:35.109Z,99636.94
2023-02-21T15:52:05.530Z,99633.83
2023-02-21T15:54:39.267Z,99638.30
2023-02-21T15:57:13.355Z,99642.43
2023-02-21T15:59:41.648Z,99642.61
2023-02-21T16:02:16.352Z,99647.74
2023-02-21T16:04:47.701Z,99653.25
2023-02-21T16:07:34.919Z,99659.26
2023-02-21T16:10:10.363Z,99653.58
2023-02-21T16:12:43.700Z,99663.02
2023-02-21T16:15:17.930Z,99661.30
2023-02-21T16:17:52.410Z,99664.57
2023-02-21T16:20:25.904Z,99667.32
2023-02-21T16:23:12.466Z,99669.58
2023-02-21T16:25:55.919Z,99674.39
2023-02-21T16:28:24.621Z,99669.39
2023-02-21T16:30:55.656Z,99677.65
2023-02-21T16:33:24.046Z,99681.41
2023-02-21T16:35:52.264Z,99683.32
2023-02-21T16:38:21.947Z,99687.27
2023-02-21T16:40:50.368Z,99691.73
2023-02-21T16:43:29.179Z,99694.99
2023-02-21T16:45:59.136Z,99700.32
2023-02-21T16:48:33.291Z,99699.80
2023-02-21T16:51:05.611Z,99706.52
2023-02-21T16:53:33.888Z,99701.89
2023-02-21T16:56:04.148Z,99704.28
2023-02-21T16:58:33.811Z,99708.91
2023-02-21T17:01:15.415Z,99710.27
2023-02-21T17:03:43.817Z,99713.91
2023-02-21T17:06:19.107Z,99720.79
2023-02-21T17:08:47.619Z,99722.49
2023-02-21T17:11:15.979Z,99728.00
2023-02-21T17:13:44.494Z,99731.45
2023-02-21T17:16:13.180Z,99732.48
2023-02-21T17:18:41.412Z,99739.88
2023-02-21T17:21:09.962Z,99742.80
2023-02-21T17:23:38.301Z,99739.53
2023-02-21T17:26:06.489Z,99745.20
2023-02-21T17:28:34.588Z,99745.20
2023-02-21T17:31:02.641Z,99747.45
2023-02-21T17:33:30.686Z,99749.31
2023-02-21T17:35:58.996Z,99748.11
2023-02-21T17:38:27.245Z,99753.60
2023-02-21T17:40:55.849Z,99758.41
2023-02-21T17:43:24.018Z,99758.91
2023-02-21T17:45:52.098Z,99758.06
2023-02-21T17:48:20.230Z,99763.20
2023-02-21T17:50:48.310Z,99762.86
2023-02-21T17:53:16.326Z,99765.77
2023-02-21T17:55:44.414Z,99767.86
2023-02-21T17:58:13.608Z,99770.08
2023-02-21T18:00:43.122Z,99769.73
2023-02-21T18:03:11.388Z,99770.95
2023-02-21T18:05:40.096Z,99775.23
2023-02-21T18:08:08.464Z,99775.92
2023-02-21T18:10:36.683Z,99778.67
2023-02-21T18:13:04.913Z,99784.85
2023-02-21T18:15:33.388Z,99782.95
2023-02-21T18:18:07.005Z,99789.65
2023-02-21T18:20:36.019Z,99782.08
2023-02-21T18:23:06.499Z,99785.69
2023-02-21T18:25:35.859Z,99793.74
2023-02-21T18:28:05.618Z,99793.76
2023-02-21T18:30:34.177Z,99796.83
2023-02-21T18:33:02.431Z,99799.59
2023-02-21T18:35:30.735Z,99805.23
2023-02-21T18:37:58.921Z,99808.98
2023-02-21T18:40:34.313Z,99809.83
2023-02-21T18:43:07.559Z,99807.41
2023-02-21T18:45:36.126Z,99814.79
2023-02-21T18:48:05.384Z,99819.42
2023-02-21T18:50:33.756Z,99824.23
2023-02-21T18:53:03.986Z,99823.20
2023-02-21T18:55:32.744Z,99823.53
2023-02-21T18:58:01.229Z,99822.48
2023-02-21T19:04:36.650Z,99822.58
2023-02-21T19:07:08.655Z,99825.94
2023-02-21T19:09:36.843Z,99833.24
2023-02-21T19:12:08.388Z,99830.42
2023-02-21T19:14:37.440Z,99831.15
2023-02-21T19:17:07.889Z,99830.88
2023-02-21T19:19:37.313Z,99829.08
2023-02-21T19:22:06.482Z,99832.12
2023-02-21T19:24:34.555Z,99838.92
2023-02-21T19:27:02.986Z,99837.31
2023-02-21T19:29:31.048Z,99843.56
2023-02-21T19:31:59.053Z,99849.86
2023-02-21T19:34:27.216Z,99851.03
2023-02-21T19:36:55.383Z,99855.23
2023-02-21T19:39:23.427Z,99859.81
2023-02-21T19:41:51.317Z,99862.18
2023-02-21T19:44:19.494Z,99865.21
2023-02-21T19:46:47.585Z,99872.23
2023-02-21T19:49:18.556Z,99879.39
2023-02-21T19:51:49.558Z,99880.56
2023-02-21T19:54:21.852Z,99880.52
2023-02-21T19:56:50.071Z,99888.55
2023-02-21T19:59:18.876Z,99885.95
2023-02-21T20:01:46.669Z,99892.15
2023-02-21T20:04:16.869Z,99891.52
2023-02-21T20:06:46.983Z,99892.64
2023-02-21T20:09:14.864Z,99895.77
2023-02-21T20:11:43.363Z,99896.63
2023-02-21T20:14:13.298Z,99896.64
2023-02-21T20:16:43.159Z,99893.64
2023-02-21T20:19:12.249Z,99899.07
2023-02-21T20:21:40.351Z,99901.79
2023-02-21T20:24:08.531Z,99901.61
2023-02-21T20:26:36.749Z,99909.17
2023-02-21T20:29:05.750Z,99913.81
2023-02-21T20:31:35.845Z,99911.59
2023-02-21T20:34:07.140Z,99918.45
2023-02-21T20:36:40.220Z,99919.97
2023-02-21T20:39:28.384Z,99927.13
2023-02-21T20:41:56.874Z,99924.52
2023-02-21T20:44:26.601Z,99932.41
2023-02-21T20:46:57.325Z,99933.29
2023-02-21T20:49:25.344Z,99935.50
2023-02-21T20:51:53.907Z,99936.14
2023-02-21T20:54:22.574Z,99942.23
2023-02-21T20:56:53.770Z,99941.46
2023-02-21T20:59:26.421Z,99950.30
2023-02-21T21:01:55.096Z,99947.99
2023-02-21T21:04:29.316Z,99954.10
2023-02-21T21:07:00.703Z,99959.35
2023-02-21T21:09:34.447Z,99962.05
2023-02-21T21:12:07.487Z,99969.73
2023-02-21T21:14:39.674Z,99973.00
2023-02-21T21:17:08.093Z,99976.57
2023-02-21T21:19:36.979Z,99978.80
2023-02-21T21:22:09.032Z,99979.50
2023-02-21T21:24:38.082Z,99978.80
2023-02-21T21:27:10.144Z,99983.76
2023-02-21T21:29:42.393Z,99988.27
2023-02-21T21:32:15.980Z,99993.08
2023-02-21T21:34:51.803Z,99990.52
2023-02-21T21:37:22.935Z,99991.60
2023-02-21T21:39:54.704Z,99994.23
2023-02-21T21:42:27.626Z,99990.68
2023-02-21T21:44:57.204Z,99989.19
2023-02-21T21:47:28.735Z,99989.41
2023-02-21T21:49:56.734Z,99992.16
2023-02-21T21:52:24.624Z,99996.07
2023-02-21T21:54:52.501Z,99997.55
2023-02-21T21:57:22.838Z,100001.96
2023-02-21T21:59:50.967Z,100004.17
2023-02-21T22:02:19.635Z,100010.86
2023-02-21T22:04:48.276Z,100013.27
2023-02-21T22:07:17.490Z,100023.60
2023-02-21T22:09:45.415Z,100025.02
2023-02-21T22:12:18.064Z,100027.80
2023-02-21T22:14:49.826Z,100035.67
2023-02-21T22:17:18.759Z,100034.40
2023-02-21T22:19:46.774Z,100038.27
2023-02-21T22:22:16.221Z,100051.06
2023-02-21T22:24:44.116Z,100060.09
2023-02-21T22:27:12.227Z,100060.94
2023-02-21T22:29:40.242Z,100063.14
2023-02-21T22:32:08.434Z,100064.27
2023-02-21T22:34:36.433Z,100062.00
2023-02-21T22:37:04.373Z,100065.00
2023-02-21T22:39:32.258Z,100059.65
2023-02-21T22:42:00.120Z,100056.63
2023-02-21T22:44:28.022Z,100058.96
2023-02-21T22:46:59.492Z,100061.47
2023-02-21T22:49:28.080Z,100061.21
2023-02-21T22:51:57.668Z,100068.69
2023-02-21T22:54:26.349Z,100068.14
2023-02-21T22:57:00.733Z,100077.21
2023-02-21T22:59:28.584Z,100081.71
2023-02-21T23:01:59.348Z,100083.52
2023-02-21T23:04:27.325Z,100079.66
2023-02-21T23:06:57.649Z,100082.21
2023-02-21T23:09:27.287Z,100081.09
2023-02-21T23:11:58.563Z,100077.67
2023-02-21T23:14:28.163Z,100075.94
2023-02-21T23:16:57.725Z,100072.10
2023-02-21T23:19:28.304Z,100074.98
2023-02-21T23:22:00.060Z,100084.04
2023-02-21T23:24:28.309Z,100088.11
2023-02-21T23:26:56.401Z,100097.79
2023-02-21T23:29:26.395Z,100099.45
2023-02-21T23:31:58.000Z,100101.27
2023-02-21T23:34:40.510Z,100109.21
2023-02-21T23:37:12.613Z,100114.00
2023-02-21T23:39:42.535Z,100119.73
2023-02-21T23:42:11.290Z,100120.80
2023-02-21T23:44:41.244Z,100121.67
2023-02-21T23:47:09.318Z,100127.55
2023-02-21T23:49:44.221Z,100128.16
2023-02-21T23:52:13.131Z,100132.89
2023-02-21T23:54:41.024Z,100134.69
2023-02-21T23:57:08.811Z,100137.89
2023-02-21T23:59:36.627Z,100140.98
